Time;durP1;ratioP1;P1;durP2;ratioP2;P2;SDS_P1;SDS_P2;PMS_P1;PMS_P2;Temp;Humidity;BMP_temperature;BMP_pressure;BME280_temperature;BME280_humidity;BME280_pressure;Samples;Min_cycle;Max_cycle;Signal;HPM_P1;HPM_P2
2022/08/31 00:04:08;;;;;;;;;;;16.90;99.90;;;;;;4593102;19;19970;-23
2022/08/31 00:05:39;;;;;;;;;;;16.90;99.90;;;;;;4591835;19;19921;-26
2022/08/31 00:07:11;;;;;;;;;;;17.00;99.90;;;;;;4591156;19;20340;-24
2022/08/31 00:08:41;;;;;;;;;;;17.00;99.90;;;;;;4590264;19;19923;-24
2022/08/31 00:10:13;;;;;;;;;;;17.00;99.90;;;;;;4591079;19;20333;-23
2022/08/31 00:11:45;;;;;;;;;;;16.90;99.90;;;;;;4591431;19;19974;-22
2022/08/31 00:13:16;;;;;;;;;;;16.90;99.90;;;;;;4589968;19;19921;-24
2022/08/31 00:14:47;;;;;;;;;;;16.90;99.90;;;;;;4590850;19;19919;-24
2022/08/31 00:16:18;;;;;;;;;;;16.90;99.90;;;;;;4589889;19;19911;-23
2022/08/31 00:17:50;;;;;;;;;;;16.90;99.90;;;;;;4590685;19;19943;-24
2022/08/31 00:19:21;;;;;;;;;;;16.90;99.90;;;;;;4591066;19;19914;-23
2022/08/31 00:20:51;;;;;;;;;;;16.90;99.90;;;;;;4590860;19;19930;-24
2022/08/31 00:22:22;;;;;;;;;;;16.90;99.90;;;;;;4590647;19;19974;-24
2022/08/31 00:23:54;;;;;;;;;;;16.90;99.90;;;;;;4590868;19;19931;-24
2022/08/31 00:25:25;;;;;;;;;;;16.90;99.90;;;;;;4590941;19;19932;-24
2022/08/31 00:26:56;;;;;;;;;;;16.90;99.90;;;;;;4588673;19;19915;-23
2022/08/31 00:28:27;;;;;;;;;;;16.90;99.90;;;;;;4591088;19;19918;-24
2022/08/31 00:29:58;;;;;;;;;;;16.90;99.90;;;;;;4590730;19;19970;-25
2022/08/31 00:31:29;;;;;;;;;;;16.90;99.90;;;;;;4590506;19;20244;-22
2022/08/31 00:33:00;;;;;;;;;;;16.90;99.90;;;;;;4589791;19;19926;-24
2022/08/31 00:34:30;;;;;;;;;;;16.90;99.90;;;;;;4590404;19;19911;-24
2022/08/31 00:36:03;;;;;;;;;;;16.90;99.90;;;;;;4590732;19;19939;-24
2022/08/31 00:37:34;;;;;;;;;;;16.90;99.90;;;;;;4590598;19;19915;-25
2022/08/31 00:39:06;;;;;;;;;;;16.90;99.90;;;;;;4589957;19;19934;-24
2022/08/31 00:40:37;;;;;;;;;;;16.90;99.90;;;;;;4589514;19;20252;-27
2022/08/31 00:42:08;;;;;;;;;;;16.90;99.90;;;;;;4589846;19;19939;-23
2022/08/31 00:43:42;;;;;;;;;;;16.80;99.90;;;;;;4590525;19;19915;-24
2022/08/31 00:45:13;;;;;;;;;;;16.90;99.90;;;;;;4589620;19;20347;-24
2022/08/31 00:46:44;;;;;;;;;;;16.90;99.90;;;;;;4588205;19;20353;-24
2022/08/31 00:48:15;;;;;;;;;;;16.90;99.90;;;;;;4590169;19;19988;-26
2022/08/31 00:49:49;;;;;;;;;;;16.80;99.90;;;;;;4590452;19;19911;-23
2022/08/31 00:51:19;;;;;;;;;;;16.80;99.90;;;;;;4590616;19;19914;-24
2022/08/31 00:52:52;;;;;;;;;;;16.90;99.90;;;;;;4590222;19;19910;-26
2022/08/31 00:54:24;;;;;;;;;;;16.90;99.90;;;;;;4590688;19;20000;-23
2022/08/31 00:55:55;;;;;;;;;;;16.80;99.90;;;;;;4588459;19;19921;-23
2022/08/31 00:57:29;;;;;;;;;;;16.90;99.90;;;;;;4588150;19;19931;-25
2022/08/31 00:59:00;;;;;;;;;;;16.90;99.90;;;;;;4588163;19;19923;-26
2022/08/31 01:00:31;;;;;;;;;;;16.90;99.90;;;;;;4587530;19;19922;-24
2022/08/31 01:02:02;;;;;;;;;;;16.90;99.90;;;;;;4588168;19;19950;-24
2022/08/31 01:03:33;;;;;;;;;;;16.90;99.90;;;;;;4588297;19;19979;-25
2022/08/31 01:05:04;;;;;;;;;;;16.90;99.90;;;;;;4588011;19;19914;-24
2022/08/31 01:06:36;;;;;;;;;;;16.90;99.90;;;;;;4587860;19;19923;-26
2022/08/31 01:08:06;;;;;;;;;;;16.90;99.90;;;;;;4588322;19;19934;-23
2022/08/31 01:09:39;;;;;;;;;;;16.90;99.90;;;;;;4587708;19;19922;-23
2022/08/31 01:11:10;;;;;;;;;;;16.90;99.90;;;;;;4587688;19;19923;-24
2022/08/31 01:12:41;;;;;;;;;;;16.90;99.90;;;;;;4588030;19;19922;-24
2022/08/31 01:14:12;;;;;;;;;;;16.90;99.90;;;;;;4588113;19;19942;-24
2022/08/31 01:15:48;;;;;;;;;;;16.90;99.90;;;;;;4587820;19;19929;-24
2022/08/31 01:17:19;;;;;;;;;;;16.90;99.90;;;;;;4587877;19;19926;-24
2022/08/31 01:18:51;;;;;;;;;;;16.90;99.90;;;;;;4587934;19;19925;-23
2022/08/31 01:20:29;;;;;;;;;;;16.90;99.90;;;;;;4587829;19;19923;-24
2022/08/31 01:22:18;;;;;;;;;;;16.90;99.90;;;;;;4587021;19;19974;-24
2022/08/31 01:23:49;;;;;;;;;;;16.90;99.90;;;;;;4587631;19;20313;-25
2022/08/31 01:25:20;;;;;;;;;;;16.90;99.90;;;;;;4587572;19;20260;-26
2022/08/31 01:26:51;;;;;;;;;;;16.90;99.90;;;;;;4588204;19;19923;-23
2022/08/31 01:28:22;;;;;;;;;;;16.90;99.90;;;;;;4588721;19;19941;-25
2022/08/31 01:29:53;;;;;;;;;;;16.90;99.90;;;;;;4589336;19;19925;-23
2022/08/31 01:31:35;;;;;;;;;;;16.90;99.90;;;;;;4588914;19;19978;-26
2022/08/31 01:33:06;;;;;;;;;;;16.90;99.90;;;;;;4590116;19;19919;-24
2022/08/31 01:34:37;;;;;;;;;;;16.90;99.90;;;;;;4589723;19;19937;-24
2022/08/31 01:36:08;;;;;;;;;;;16.90;99.90;;;;;;4590047;19;19919;-24
2022/08/31 01:37:39;;;;;;;;;;;16.90;99.90;;;;;;4590080;19;19915;-24
2022/08/31 01:39:10;;;;;;;;;;;16.90;99.90;;;;;;4594188;19;19915;-23
2022/08/31 01:40:45;;;;;;;;;;;16.90;99.90;;;;;;4593009;19;19914;-25
2022/08/31 01:42:16;;;;;;;;;;;16.90;99.90;;;;;;4593079;19;19944;-26
2022/08/31 01:43:47;;;;;;;;;;;16.90;99.90;;;;;;4594751;19;19926;-24
2022/08/31 01:45:18;;;;;;;;;;;16.90;99.90;;;;;;4594172;19;19922;-23
2022/08/31 01:46:50;;;;;;;;;;;16.90;99.90;;;;;;4592430;19;19926;-25
2022/08/31 01:48:21;;;;;;;;;;;16.90;99.90;;;;;;4593236;19;19914;-23
2022/08/31 01:49:52;;;;;;;;;;;16.90;99.90;;;;;;4593913;19;19992;-24
2022/08/31 01:51:23;;;;;;;;;;;16.90;99.90;;;;;;4594110;19;19918;-26
2022/08/31 01:52:54;;;;;;;;;;;16.90;99.90;;;;;;4591627;19;19922;-24
2022/08/31 01:54:26;;;;;;;;;;;16.90;99.90;;;;;;4592743;19;19926;-23
2022/08/31 01:55:57;;;;;;;;;;;16.90;99.90;;;;;;4593867;19;19937;-24
2022/08/31 01:57:28;;;;;;;;;;;16.90;99.90;;;;;;4594025;19;19946;-24
2022/08/31 01:58:59;;;;;;;;;;;16.90;99.90;;;;;;4594173;19;19919;-24
2022/08/31 02:00:30;;;;;;;;;;;16.90;99.90;;;;;;4594419;19;19921;-24
2022/08/31 02:02:01;;;;;;;;;;;16.90;99.90;;;;;;4591738;19;19990;-23
2022/08/31 02:03:32;;;;;;;;;;;16.90;99.90;;;;;;4593868;19;19922;-23
2022/08/31 02:05:03;;;;;;;;;;;16.90;99.90;;;;;;4592823;19;19942;-24
2022/08/31 02:06:35;;;;;;;;;;;16.90;99.90;;;;;;4593910;19;19923;-26
2022/08/31 02:08:06;;;;;;;;;;;16.90;99.90;;;;;;4592456;19;20351;-23
2022/08/31 02:09:37;;;;;;;;;;;16.90;99.90;;;;;;4593442;19;19962;-26
2022/08/31 02:11:08;;;;;;;;;;;16.90;99.90;;;;;;4593922;19;20268;-23
2022/08/31 02:12:39;;;;;;;;;;;16.90;99.90;;;;;;4594327;19;19922;-24
2022/08/31 02:14:10;;;;;;;;;;;16.90;99.90;;;;;;4593467;19;19923;-25
2022/08/31 02:15:41;;;;;;;;;;;16.90;99.90;;;;;;4593745;19;20237;-26
2022/08/31 02:17:12;;;;;;;;;;;16.90;99.90;;;;;;4592915;19;19918;-25
2022/08/31 02:18:43;;;;;;;;;;;16.90;99.90;;;;;;4592554;19;19978;-23
2022/08/31 02:20:15;;;;;;;;;;;16.90;99.90;;;;;;4593431;19;19915;-24
2022/08/31 02:21:46;;;;;;;;;;;16.90;99.90;;;;;;4592807;19;19919;-26
2022/08/31 02:23:16;;;;;;;;;;;16.90;99.90;;;;;;4592944;19;20253;-21
2022/08/31 02:24:47;;;;;;;;;;;16.90;99.90;;;;;;4592206;19;19924;-24
2022/08/31 02:26:19;;;;;;;;;;;16.90;99.90;;;;;;4593009;19;20246;-23
2022/08/31 02:27:49;;;;;;;;;;;16.90;99.90;;;;;;4593774;19;19919;-24
2022/08/31 02:29:21;;;;;;;;;;;16.90;99.90;;;;;;4592695;19;19926;-23
2022/08/31 02:30:51;;;;;;;;;;;16.90;99.90;;;;;;4592992;19;19921;-25
2022/08/31 02:32:23;;;;;;;;;;;16.90;99.90;;;;;;4593099;19;19941;-24
2022/08/31 02:33:54;;;;;;;;;;;16.90;99.90;;;;;;4593459;19;19915;-23
2022/08/31 02:35:25;;;;;;;;;;;16.90;99.90;;;;;;4592587;19;19939;-23
2022/08/31 02:36:57;;;;;;;;;;;16.90;99.90;;;;;;4592717;19;19924;-24
2022/08/31 02:38:29;;;;;;;;;;;16.90;99.90;;;;;;4593063;19;19975;-23
2022/08/31 02:40:00;;;;;;;;;;;16.90;99.90;;;;;;4591869;19;19956;-25
2022/08/31 02:41:31;;;;;;;;;;;16.90;99.90;;;;;;4592320;19;20332;-23
2022/08/31 02:43:05;;;;;;;;;;;16.90;99.90;;;;;;4593132;19;19936;-23
2022/08/31 02:44:37;;;;;;;;;;;16.90;99.90;;;;;;4592960;19;19943;-23
2022/08/31 02:46:08;;;;;;;;;;;16.90;99.90;;;;;;4592322;19;19922;-24
2022/08/31 02:47:39;;;;;;;;;;;16.90;99.90;;;;;;4594681;19;20252;-24
2022/08/31 02:49:10;;;;;;;;;;;16.90;99.90;;;;;;4591429;19;19921;-24
2022/08/31 02:50:42;;;;;;;;;;;16.90;99.90;;;;;;4591338;19;19918;-23
2022/08/31 02:52:13;;;;;;;;;;;16.90;99.90;;;;;;4594993;19;19918;-24
2022/08/31 02:53:44;;;;;;;;;;;16.90;99.90;;;;;;4592244;19;19922;-22
2022/08/31 02:55:15;;;;;;;;;;;16.90;99.90;;;;;;4592680;19;19922;-24
2022/08/31 02:56:46;;;;;;;;;;;16.90;99.90;;;;;;4592714;19;20340;-26
2022/08/31 02:58:17;;;;;;;;;;;16.90;99.90;;;;;;4592596;19;19919;-23
2022/08/31 02:59:48;;;;;;;;;;;16.90;99.90;;;;;;4592831;19;19915;-23
2022/08/31 03:01:20;;;;;;;;;;;16.90;99.90;;;;;;4592822;19;19919;-24
2022/08/31 03:02:54;;;;;;;;;;;16.90;99.90;;;;;;4592015;19;19919;-23
2022/08/31 03:04:25;;;;;;;;;;;17.00;99.90;;;;;;4594345;19;19923;-23
2022/08/31 03:05:56;;;;;;;;;;;17.00;99.90;;;;;;4592489;19;19933;-24
2022/08/31 03:07:27;;;;;;;;;;;17.00;99.90;;;;;;4592474;19;19918;-23
2022/08/31 03:09:01;;;;;;;;;;;16.90;99.90;;;;;;4592680;19;20264;-23
2022/08/31 03:10:32;;;;;;;;;;;17.00;99.90;;;;;;4592223;19;19933;-22
2022/08/31 03:12:03;;;;;;;;;;;16.90;99.90;;;;;;4592464;19;19906;-24
2022/08/31 03:13:35;;;;;;;;;;;17.00;99.90;;;;;;4592419;19;19921;-23
2022/08/31 03:15:06;;;;;;;;;;;17.00;99.90;;;;;;4592757;19;19936;-25
2022/08/31 03:16:38;;;;;;;;;;;16.90;99.90;;;;;;4592460;19;20014;-23
2022/08/31 03:18:09;;;;;;;;;;;17.00;99.90;;;;;;4592411;19;19911;-23
2022/08/31 03:19:40;;;;;;;;;;;17.00;99.90;;;;;;4592300;19;19918;-22
2022/08/31 03:21:11;;;;;;;;;;;17.00;99.90;;;;;;4592139;19;19970;-24
2022/08/31 03:22:42;;;;;;;;;;;17.00;99.90;;;;;;4590882;19;20290;-23
2022/08/31 03:24:16;;;;;;;;;;;16.90;99.90;;;;;;4590944;19;19922;-23
2022/08/31 03:25:47;;;;;;;;;;;17.00;99.90;;;;;;4591974;19;20287;-23
2022/08/31 03:27:18;;;;;;;;;;;16.90;99.90;;;;;;4590684;19;19915;-25
2022/08/31 03:28:49;;;;;;;;;;;16.90;99.90;;;;;;4589119;19;20311;-23
2022/08/31 03:30:20;;;;;;;;;;;17.00;99.90;;;;;;4591522;19;19974;-25
2022/08/31 03:31:51;;;;;;;;;;;17.00;99.90;;;;;;4591343;19;19931;-24
2022/08/31 03:33:23;;;;;;;;;;;17.00;99.90;;;;;;4591676;19;19922;-26
2022/08/31 03:34:54;;;;;;;;;;;16.90;99.90;;;;;;4592057;19;19919;-24
2022/08/31 03:36:25;;;;;;;;;;;16.90;99.90;;;;;;4590722;19;20292;-24
2022/08/31 03:37:56;;;;;;;;;;;17.00;99.90;;;;;;4592072;19;19986;-24
2022/08/31 03:39:27;;;;;;;;;;;16.90;99.90;;;;;;4591861;19;20282;-25
2022/08/31 03:40:59;;;;;;;;;;;16.90;99.90;;;;;;4589575;19;19922;-24
2022/08/31 03:42:30;;;;;;;;;;;16.90;99.90;;;;;;4591193;19;19938;-23
2022/08/31 03:44:01;;;;;;;;;;;16.90;99.90;;;;;;4591457;19;19922;-22
2022/08/31 03:45:33;;;;;;;;;;;16.90;99.90;;;;;;4591350;19;19935;-23
2022/08/31 03:47:04;;;;;;;;;;;16.90;99.90;;;;;;4591868;19;20337;-24
2022/08/31 03:48:35;;;;;;;;;;;16.90;99.90;;;;;;4592030;19;19925;-26
2022/08/31 03:50:07;;;;;;;;;;;16.90;99.90;;;;;;4591722;19;19918;-24
2022/08/31 03:51:38;;;;;;;;;;;17.00;99.90;;;;;;4592860;19;19927;-23
2022/08/31 03:53:09;;;;;;;;;;;16.90;99.90;;;;;;4593882;19;20324;-24
2022/08/31 03:54:40;;;;;;;;;;;17.00;99.90;;;;;;4592038;19;19931;-26
2022/08/31 03:56:11;;;;;;;;;;;17.00;99.90;;;;;;4591516;19;19950;-24
2022/08/31 03:57:43;;;;;;;;;;;17.00;99.90;;;;;;4591291;19;19926;-24
2022/08/31 03:59:14;;;;;;;;;;;17.00;99.90;;;;;;4592017;19;19926;-24
2022/08/31 04:00:44;;;;;;;;;;;17.00;99.90;;;;;;4591405;19;19937;-27
2022/08/31 04:02:15;;;;;;;;;;;16.90;99.90;;;;;;4590668;19;19974;-25
2022/08/31 04:03:47;;;;;;;;;;;16.90;99.90;;;;;;4592264;19;19929;-23
2022/08/31 04:05:18;;;;;;;;;;;16.90;99.90;;;;;;4590249;19;19923;-24
2022/08/31 04:06:49;;;;;;;;;;;16.90;99.90;;;;;;4590671;19;19915;-23
2022/08/31 04:08:20;;;;;;;;;;;17.00;99.90;;;;;;4590263;19;20336;-23
2022/08/31 04:09:51;;;;;;;;;;;16.90;99.90;;;;;;4591379;19;20325;-25
2022/08/31 04:11:22;;;;;;;;;;;17.00;99.90;;;;;;4590972;19;19923;-24
2022/08/31 04:12:53;;;;;;;;;;;16.90;99.90;;;;;;4591104;19;19907;-23
2022/08/31 04:14:24;;;;;;;;;;;16.90;99.90;;;;;;4589234;19;19919;-23
2022/08/31 04:15:58;;;;;;;;;;;16.90;99.90;;;;;;4590743;19;19951;-23
2022/08/31 04:17:28;;;;;;;;;;;16.90;99.90;;;;;;4591429;19;19937;-24
2022/08/31 04:18:59;;;;;;;;;;;16.90;99.90;;;;;;4590733;19;19923;-23
2022/08/31 04:20:34;;;;;;;;;;;16.90;99.90;;;;;;4590821;19;19914;-23
2022/08/31 04:22:06;;;;;;;;;;;16.90;99.90;;;;;;4590672;19;19989;-26
2022/08/31 04:23:39;;;;;;;;;;;17.00;99.90;;;;;;4589567;19;19970;-23
2022/08/31 04:25:10;;;;;;;;;;;16.90;99.90;;;;;;4589950;19;19937;-23
2022/08/31 04:26:41;;;;;;;;;;;16.90;99.90;;;;;;4588643;19;20283;-23
2022/08/31 04:28:12;;;;;;;;;;;16.90;99.90;;;;;;4590264;19;19933;-24
2022/08/31 04:29:43;;;;;;;;;;;17.00;99.90;;;;;;4588986;19;20340;-25
2022/08/31 04:31:14;;;;;;;;;;;17.00;99.90;;;;;;4590083;19;19986;-24
2022/08/31 04:32:45;;;;;;;;;;;17.00;99.90;;;;;;4590620;19;19925;-24
2022/08/31 04:34:16;;;;;;;;;;;17.00;99.90;;;;;;4590697;19;19945;-23
2022/08/31 04:35:47;;;;;;;;;;;17.00;99.90;;;;;;4590078;19;20281;-24
2022/08/31 04:37:18;;;;;;;;;;;17.00;99.90;;;;;;4590643;19;19945;-23
2022/08/31 04:38:50;;;;;;;;;;;17.00;99.90;;;;;;4592365;19;19922;-26
2022/08/31 04:40:21;;;;;;;;;;;17.00;99.90;;;;;;4589980;19;20324;-26
2022/08/31 04:41:52;;;;;;;;;;;17.00;99.90;;;;;;4589696;19;19986;-24
2022/08/31 04:43:24;;;;;;;;;;;17.00;99.90;;;;;;4587523;19;19927;-23
2022/08/31 04:44:55;;;;;;;;;;;17.00;99.90;;;;;;4587948;19;19937;-24
2022/08/31 04:46:26;;;;;;;;;;;17.00;99.90;;;;;;4586715;19;19939;-23
2022/08/31 04:47:57;;;;;;;;;;;17.10;99.90;;;;;;4589191;19;19918;-26
2022/08/31 04:49:28;;;;;;;;;;;17.10;99.90;;;;;;4589727;19;19937;-24
2022/08/31 04:51:08;;;;;;;;;;;17.10;99.90;;;;;;4589694;19;19919;-24
2022/08/31 04:52:41;;;;;;;;;;;17.10;99.90;;;;;;4590257;19;19915;-23
2022/08/31 04:54:12;;;;;;;;;;;17.10;99.90;;;;;;4588325;19;20339;-24
2022/08/31 04:55:43;;;;;;;;;;;17.10;99.90;;;;;;4588502;19;19919;-24
2022/08/31 04:57:14;;;;;;;;;;;17.00;99.90;;;;;;4587791;19;20021;-23
2022/08/31 04:58:46;;;;;;;;;;;17.10;99.90;;;;;;4586509;19;19931;-24
2022/08/31 05:00:17;;;;;;;;;;;17.10;99.90;;;;;;4589819;19;20236;-23
2022/08/31 05:01:48;;;;;;;;;;;17.00;99.90;;;;;;4589377;19;19978;-24
2022/08/31 05:03:19;;;;;;;;;;;17.00;99.90;;;;;;4590798;19;20330;-24
2022/08/31 05:04:50;;;;;;;;;;;17.00;99.90;;;;;;4589162;19;19915;-24
2022/08/31 05:06:22;;;;;;;;;;;17.00;99.90;;;;;;4589904;19;20336;-27
2022/08/31 05:07:53;;;;;;;;;;;17.00;99.90;;;;;;4589165;19;19952;-23
2022/08/31 05:09:24;;;;;;;;;;;17.10;99.90;;;;;;4586229;19;19922;-23
2022/08/31 05:10:55;;;;;;;;;;;17.00;99.90;;;;;;4588078;19;19923;-26
2022/08/31 05:12:26;;;;;;;;;;;17.10;99.90;;;;;;4587510;19;19936;-24
2022/08/31 05:13:58;;;;;;;;;;;17.10;99.90;;;;;;4589524;19;19918;-26
2022/08/31 05:15:29;;;;;;;;;;;17.10;99.90;;;;;;4589967;19;19926;-24
2022/08/31 05:17:00;;;;;;;;;;;17.10;99.90;;;;;;4588828;19;19978;-23
2022/08/31 05:18:31;;;;;;;;;;;17.10;99.90;;;;;;4590967;19;19922;-25
2022/08/31 05:20:04;;;;;;;;;;;17.10;99.90;;;;;;4589439;19;20003;-27
2022/08/31 05:21:35;;;;;;;;;;;17.10;99.90;;;;;;4589388;19;19923;-25
2022/08/31 05:23:07;;;;;;;;;;;17.10;99.90;;;;;;4589677;19;19926;-24
2022/08/31 05:24:38;;;;;;;;;;;17.10;99.90;;;;;;4589520;19;20355;-26
2022/08/31 05:26:09;;;;;;;;;;;17.10;99.90;;;;;;4588921;19;19927;-23
2022/08/31 05:27:40;;;;;;;;;;;17.10;99.90;;;;;;4587150;19;19918;-25
2022/08/31 05:29:15;;;;;;;;;;;17.10;99.90;;;;;;4590045;19;19923;-24
2022/08/31 05:30:46;;;;;;;;;;;17.10;99.90;;;;;;4590395;19;19937;-24
2022/08/31 05:32:17;;;;;;;;;;;17.20;99.90;;;;;;4589806;19;20455;-26
2022/08/31 05:33:48;;;;;;;;;;;17.20;99.90;;;;;;4590509;19;19918;-23
2022/08/31 05:35:19;;;;;;;;;;;17.20;99.90;;;;;;4590018;19;19915;-24
2022/08/31 05:36:52;;;;;;;;;;;17.20;99.90;;;;;;4587624;19;19939;-25
2022/08/31 05:38:23;;;;;;;;;;;17.20;99.90;;;;;;4586945;19;19921;-22
2022/08/31 05:39:54;;;;;;;;;;;17.20;99.90;;;;;;4586358;19;20333;-24
2022/08/31 05:41:25;;;;;;;;;;;17.20;99.90;;;;;;4586942;19;19935;-24
2022/08/31 05:42:58;;;;;;;;;;;17.20;99.90;;;;;;4587185;19;19919;-24
2022/08/31 05:44:29;;;;;;;;;;;17.20;99.90;;;;;;4587578;19;19918;-23
2022/08/31 05:46:00;;;;;;;;;;;17.30;99.90;;;;;;4586458;19;19923;-24
2022/08/31 05:47:31;;;;;;;;;;;17.30;99.90;;;;;;4587756;19;20329;-23
2022/08/31 05:49:02;;;;;;;;;;;17.30;99.90;;;;;;4586741;19;19923;-25
2022/08/31 05:50:34;;;;;;;;;;;17.30;99.90;;;;;;4586528;19;19967;-23
2022/08/31 05:52:05;;;;;;;;;;;17.30;99.90;;;;;;4586234;19;19960;-24
2022/08/31 05:53:38;;;;;;;;;;;17.40;99.90;;;;;;4585943;19;19918;-24
2022/08/31 05:55:10;;;;;;;;;;;17.40;99.90;;;;;;4585093;19;19919;-24
2022/08/31 05:56:41;;;;;;;;;;;17.40;99.90;;;;;;4585307;19;19927;-24
2022/08/31 05:58:12;;;;;;;;;;;17.40;99.90;;;;;;4588276;19;19934;-26
2022/08/31 05:59:44;;;;;;;;;;;17.40;99.90;;;;;;4587915;19;20109;-26
2022/08/31 06:01:22;;;;;;;;;;;17.50;99.90;;;;;;4587100;19;20288;-23
2022/08/31 06:02:53;;;;;;;;;;;17.50;99.90;;;;;;4584848;19;19919;-24
2022/08/31 06:04:24;;;;;;;;;;;17.50;99.90;;;;;;4586919;19;19911;-27
2022/08/31 06:05:55;;;;;;;;;;;17.50;99.90;;;;;;4586957;19;20025;-27
2022/08/31 06:07:26;;;;;;;;;;;17.50;99.90;;;;;;4585991;19;19930;-26
2022/08/31 06:08:57;;;;;;;;;;;17.50;99.90;;;;;;4586779;19;19922;-24
2022/08/31 06:10:31;;;;;;;;;;;17.50;99.90;;;;;;4587837;19;19936;-24
2022/08/31 06:12:04;;;;;;;;;;;17.50;99.90;;;;;;4587754;19;19922;-23
2022/08/31 06:13:35;;;;;;;;;;;17.50;99.90;;;;;;4586031;19;19938;-25
2022/08/31 06:15:07;;;;;;;;;;;17.50;99.90;;;;;;4589409;19;19919;-24
2022/08/31 06:16:38;;;;;;;;;;;17.60;99.90;;;;;;4589939;19;19990;-24
2022/08/31 06:18:09;;;;;;;;;;;17.60;99.90;;;;;;4589050;19;19958;-22
2022/08/31 06:19:40;;;;;;;;;;;17.60;99.90;;;;;;4588757;19;19944;-23
2022/08/31 06:21:11;;;;;;;;;;;17.60;99.90;;;;;;4587557;19;20378;-26
2022/08/31 06:22:46;;;;;;;;;;;17.60;99.90;;;;;;4587520;19;19914;-23
2022/08/31 06:24:18;;;;;;;;;;;17.70;99.90;;;;;;4586495;19;19958;-26
2022/08/31 06:25:49;;;;;;;;;;;17.60;99.90;;;;;;4590366;19;19930;-24
2022/08/31 06:27:20;;;;;;;;;;;17.70;99.90;;;;;;4592247;19;19923;-23
2022/08/31 06:28:51;;;;;;;;;;;17.70;99.90;;;;;;4594987;19;19942;-23
2022/08/31 06:30:25;;;;;;;;;;;17.70;99.90;;;;;;4591751;19;19926;-23
2022/08/31 06:31:56;;;;;;;;;;;17.70;99.90;;;;;;4591502;19;19934;-24
2022/08/31 06:33:28;;;;;;;;;;;17.80;99.90;;;;;;4591476;19;19922;-26
2022/08/31 06:34:59;;;;;;;;;;;17.80;99.90;;;;;;4590919;19;19962;-23
2022/08/31 06:36:30;;;;;;;;;;;17.80;99.90;;;;;;4589979;19;19927;-24
2022/08/31 06:38:01;;;;;;;;;;;17.80;99.90;;;;;;4589577;19;19915;-24
2022/08/31 06:39:32;;;;;;;;;;;17.80;99.90;;;;;;4590855;19;19917;-23
2022/08/31 06:41:09;;;;;;;;;;;17.90;99.90;;;;;;4589210;19;20250;-24
2022/08/31 06:42:40;;;;;;;;;;;17.90;99.90;;;;;;4589517;19;19945;-26
2022/08/31 06:44:12;;;;;;;;;;;17.90;99.90;;;;;;4590615;19;19923;-25
2022/08/31 06:45:43;;;;;;;;;;;18.00;99.90;;;;;;4590263;19;19915;-25
2022/08/31 06:47:14;;;;;;;;;;;18.00;99.90;;;;;;4590956;19;20337;-24
2022/08/31 06:48:47;;;;;;;;;;;18.00;99.90;;;;;;4590682;19;19915;-22
2022/08/31 06:50:18;;;;;;;;;;;18.00;99.90;;;;;;4590938;19;19923;-24
2022/08/31 06:51:49;;;;;;;;;;;18.00;99.90;;;;;;4591516;19;19915;-23
2022/08/31 06:53:23;;;;;;;;;;;18.00;99.90;;;;;;4590486;19;19915;-24
2022/08/31 06:54:54;;;;;;;;;;;18.10;99.90;;;;;;4590579;19;19926;-26
2022/08/31 06:56:25;;;;;;;;;;;18.10;99.90;;;;;;4590741;19;19917;-26
2022/08/31 06:57:56;;;;;;;;;;;18.10;99.90;;;;;;4590861;19;19915;-26
2022/08/31 06:59:27;;;;;;;;;;;18.20;99.90;;;;;;4590639;19;19928;-24
2022/08/31 07:01:06;;;;;;;;;;;18.10;99.90;;;;;;4590362;19;19927;-24
2022/08/31 07:02:36;;;;;;;;;;;18.20;99.90;;;;;;4590736;19;19919;-27
2022/08/31 07:04:08;;;;;;;;;;;18.20;99.90;;;;;;4593723;19;19923;-25
2022/08/31 07:05:38;;;;;;;;;;;18.20;99.90;;;;;;4592601;19;19919;-24
2022/08/31 07:07:10;;;;;;;;;;;18.20;99.90;;;;;;4592548;19;19919;-23
2022/08/31 07:08:41;;;;;;;;;;;18.20;99.90;;;;;;4593120;19;20000;-24
2022/08/31 07:10:12;;;;;;;;;;;18.30;99.90;;;;;;4592610;19;19919;-24
2022/08/31 07:11:47;;;;;;;;;;;18.30;99.90;;;;;;4592415;19;19911;-24
2022/08/31 07:13:18;;;;;;;;;;;18.30;99.90;;;;;;4591809;19;19970;-23
2022/08/31 07:14:49;;;;;;;;;;;18.30;99.90;;;;;;4592134;19;19922;-24
2022/08/31 07:16:21;;;;;;;;;;;18.40;99.90;;;;;;4592517;19;19923;-23
2022/08/31 07:17:52;;;;;;;;;;;18.40;99.90;;;;;;4592696;19;19922;-24
2022/08/31 07:19:24;;;;;;;;;;;18.40;99.90;;;;;;4592709;19;20336;-25
2022/08/31 07:20:54;;;;;;;;;;;18.40;99.90;;;;;;4591330;19;19919;-24
2022/08/31 07:22:25;;;;;;;;;;;18.40;99.90;;;;;;4591268;19;19915;-25
2022/08/31 07:23:57;;;;;;;;;;;18.40;99.90;;;;;;4592219;19;19922;-24
2022/08/31 07:25:28;;;;;;;;;;;18.50;99.90;;;;;;4592742;19;20241;-25
2022/08/31 07:27:01;;;;;;;;;;;18.40;99.90;;;;;;4591085;19;19922;-24
2022/08/31 07:28:32;;;;;;;;;;;18.50;99.90;;;;;;4591086;19;19922;-24
2022/08/31 07:30:04;;;;;;;;;;;18.50;99.90;;;;;;4590943;19;19955;-24
2022/08/31 07:31:47;;;;;;;;;;;18.40;99.90;;;;;;4592123;19;19949;-24
2022/08/31 07:33:18;;;;;;;;;;;18.50;99.90;;;;;;4591042;19;20292;-27
2022/08/31 07:34:49;;;;;;;;;;;18.50;99.90;;;;;;4590875;19;19907;-23
2022/08/31 07:36:20;;;;;;;;;;;18.60;99.90;;;;;;4591082;19;19930;-24
2022/08/31 07:43:21;;;;;;;;;;;18.60;99.90;;;;;;4589968;19;19923;-26
2022/08/31 07:44:52;;;;;;;;;;;18.60;99.90;;;;;;4589757;19;19940;-24
2022/08/31 07:46:28;;;;;;;;;;;18.60;99.90;;;;;;4589741;19;19934;-23
2022/08/31 07:47:59;;;;;;;;;;;18.70;99.90;;;;;;4589604;19;19921;-24
2022/08/31 07:49:31;;;;;;;;;;;18.70;99.90;;;;;;4590659;19;20284;-25
2022/08/31 07:51:02;;;;;;;;;;;18.70;99.90;;;;;;4591715;19;19921;-24
2022/08/31 07:52:32;;;;;;;;;;;18.70;99.90;;;;;;4592113;19;19929;-26
2022/08/31 07:54:05;;;;;;;;;;;18.80;99.90;;;;;;4588983;19;19941;-25
2022/08/31 07:55:38;;;;;;;;;;;18.80;99.90;;;;;;4590475;19;19923;-25
2022/08/31 07:57:08;;;;;;;;;;;18.80;99.90;;;;;;4591409;19;19914;-24
2022/08/31 07:58:41;;;;;;;;;;;18.80;99.90;;;;;;4591687;19;19933;-23
2022/08/31 08:00:17;;;;;;;;;;;18.80;99.90;;;;;;4591325;19;19914;-23
2022/08/31 08:01:48;;;;;;;;;;;18.80;99.90;;;;;;4590348;19;19929;-24
2022/08/31 08:03:20;;;;;;;;;;;18.80;99.90;;;;;;4589585;19;19930;-24
2022/08/31 08:04:52;;;;;;;;;;;18.90;99.90;;;;;;4590801;19;19942;-23
2022/08/31 08:06:27;;;;;;;;;;;18.80;99.90;;;;;;4589119;19;20594;-23
2022/08/31 08:08:04;;;;;;;;;;;18.80;99.90;;;;;;4590831;19;20271;-23
2022/08/31 08:09:35;;;;;;;;;;;18.90;99.90;;;;;;4590881;19;20336;-25
2022/08/31 08:11:06;;;;;;;;;;;18.90;99.90;;;;;;4591382;19;20696;-25
2022/08/31 08:12:37;;;;;;;;;;;18.90;99.90;;;;;;4591193;19;19922;-24
2022/08/31 08:14:09;;;;;;;;;;;18.90;99.90;;;;;;4591090;19;19919;-24
2022/08/31 08:15:39;;;;;;;;;;;19.00;99.90;;;;;;4591287;19;20232;-26
2022/08/31 08:17:10;;;;;;;;;;;18.90;99.90;;;;;;4591369;19;19914;-25
2022/08/31 08:18:42;;;;;;;;;;;19.00;99.90;;;;;;4591643;19;19931;-26
2022/08/31 08:20:13;;;;;;;;;;;19.00;99.90;;;;;;4591435;19;19922;-24
2022/08/31 08:21:45;;;;;;;;;;;19.00;99.90;;;;;;4591458;19;19929;-26
2022/08/31 08:23:17;;;;;;;;;;;19.00;99.90;;;;;;4590949;19;20275;-24
2022/08/31 08:24:49;;;;;;;;;;;19.10;99.90;;;;;;4591033;19;19956;-27
2022/08/31 08:26:20;;;;;;;;;;;19.10;99.90;;;;;;4590956;19;19915;-24
2022/08/31 08:27:53;;;;;;;;;;;19.10;99.90;;;;;;4591331;19;19986;-23
2022/08/31 08:29:24;;;;;;;;;;;19.10;99.90;;;;;;4590715;19;19928;-23
2022/08/31 08:30:59;;;;;;;;;;;19.10;99.90;;;;;;4589588;19;19925;-25
2022/08/31 08:32:31;;;;;;;;;;;19.00;99.90;;;;;;4590206;19;19986;-27
2022/08/31 08:34:01;;;;;;;;;;;19.10;99.90;;;;;;4591183;19;20325;-24
2022/08/31 08:35:33;;;;;;;;;;;19.10;99.90;;;;;;4590801;19;19940;-27
2022/08/31 08:37:05;;;;;;;;;;;19.10;99.90;;;;;;4590753;19;19914;-24
2022/08/31 08:38:37;;;;;;;;;;;19.10;99.90;;;;;;4590624;19;19974;-24
2022/08/31 08:40:11;;;;;;;;;;;19.10;99.90;;;;;;4590512;19;19928;-24
2022/08/31 08:41:42;;;;;;;;;;;19.20;99.90;;;;;;4588242;19;19915;-24
2022/08/31 08:43:15;;;;;;;;;;;19.20;99.90;;;;;;4589276;19;19939;-26
2022/08/31 08:44:46;;;;;;;;;;;19.20;99.90;;;;;;4590293;19;19936;-26
2022/08/31 08:46:18;;;;;;;;;;;19.20;99.90;;;;;;4589868;19;20347;-24
2022/08/31 08:47:50;;;;;;;;;;;19.20;99.90;;;;;;4587644;19;19922;-23
2022/08/31 08:49:23;;;;;;;;;;;19.20;99.90;;;;;;4589175;19;19998;-24
2022/08/31 08:50:54;;;;;;;;;;;19.20;99.90;;;;;;4590143;19;20266;-24
2022/08/31 08:52:29;;;;;;;;;;;19.20;99.90;;;;;;4590534;19;19913;-24
2022/08/31 08:54:02;;;;;;;;;;;19.20;99.90;;;;;;4590602;19;19922;-24
2022/08/31 08:55:33;;;;;;;;;;;19.20;99.90;;;;;;4590316;19;19919;-24
2022/08/31 08:57:11;;;;;;;;;;;19.20;99.90;;;;;;4588772;19;19921;-23
2022/08/31 08:58:42;;;;;;;;;;;19.20;99.90;;;;;;4589516;19;19937;-24
2022/08/31 09:00:21;;;;;;;;;;;19.20;99.90;;;;;;4589497;19;19936;-25
2022/08/31 09:01:55;;;;;;;;;;;19.20;99.90;;;;;;4589780;19;19918;-23